• Join FlightAware (Why Join?)
  • Login
  • US Flag 
06:23AM EDT


 

Airport Tracker/Info


-or-


 

Live Flight TrackerFlight Track Log ✈ TAM3883 ✈ 06-Sep-2013 ✈ SBTE / THE - SBBR / BSB

Flight Track Log - Related Links

Times and Time Zones

All times are in EDT time to prevent confusion due to time zone crossing. See the TAM3883 flight status page for this flight to view local times or setup timezone preferences in your user account.

Time Position Orientation Groundspeed Altitude Reporting Facility
EDT Latitude Longitude Course Direction KTS MPH feet Rate Location/Type
05:54AM -5.0640 -42.8230 162° South 155 178  Level FlightAware
05:54AM -5.0760 -42.8220 175° South 161 185 800 2,220 Climbing FlightAware
05:54AM -5.0880 -42.8210 175° South 172 198 1,200 1,200 Climbing FlightAware
05:55AM -5.1060 -42.8320 211° Southwest 203 234 1,600 900 Climbing FlightAware
05:55AM -5.1170 -42.8480 235° Southwest 232 267 1,900 840 Climbing FlightAware
05:55AM -5.1240 -42.8540 220° Southwest 249 287 2,000 1,080 Climbing FlightAware
05:55AM -5.1330 -42.8600 214° Southwest 262 302 2,200 1,980 Climbing FlightAware
05:56AM -5.1510 -42.8680 204° Southwest 276 318 2,800 3,120 Climbing FlightAware
05:56AM -5.1790 -42.8790 201° Southwest 269 310 4,300 3,240 Climbing FlightAware
05:57AM -5.2080 -42.8900 201° Southwest 279 321 5,400 2,820 Climbing FlightAware
05:57AM -5.2310 -42.9010 205° Southwest 279 321 6,400 2,820 Climbing FlightAware
05:57AM -5.2550 -42.9120 205° Southwest 285 328 7,300 3,000 Climbing FlightAware
05:58AM -5.2800 -42.9240 206° Southwest 281 323 8,400 2,820 Climbing FlightAware
05:58AM -5.3060 -42.9360 205° Southwest 284 327 9,300 2,160 Climbing FlightAware
05:59AM -5.3500 -42.9570 205° Southwest 303 349 10,500 1,500 Climbing FlightAware
05:59AM -5.4010 -42.9800 204° Southwest 345 397 11,100 1,380 Climbing FlightAware
06:00AM -5.4460 -43.0020 206° Southwest 361 415 12,100 2,340 Climbing FlightAware
06:00AM -5.5030 -43.0280 204° Southwest 360 414 13,800 2,460 Climbing FlightAware
06:01AM -5.5540 -43.0520 205° Southwest 366 421 15,000 1,740 Climbing FlightAware
06:01AM -5.6070 -43.0770 205° Southwest 383 441 15,800 1,620 Climbing FlightAware
06:02AM -5.6650 -43.1040 205° Southwest 392 451 16,900 1,860 Climbing FlightAware
06:03AM -5.7300 -43.1340 205° Southwest 395 455 18,100 1,860 Climbing FlightAware
06:03AM -5.7840 -43.1590 205° Southwest 398 458 19,100 1,500 Climbing FlightAware
06:04AM -5.8450 -43.1880 205° Southwest 411 473 19,800 1,320 Climbing FlightAware
06:04AM -5.9090 -43.2170 204° Southwest 417 480 20,700 1,620 Climbing FlightAware
06:05AM -5.9700 -43.2460 205° Southwest 413 475 21,800 1,620 Climbing FlightAware
06:05AM -6.0260 -43.2720 205° Southwest 418 481 22,600 1,380 Climbing FlightAware
06:06AM -6.0900 -43.3020 205° Southwest 423 487 23,400 1,200 Climbing FlightAware
06:07AM -6.1560 -43.3320 204° Southwest 431 496 24,100 1,560 Climbing FlightAware
06:07AM -6.2190 -43.3620 205° Southwest 425 489 25,300 1,500 Climbing FlightAware
06:08AM -6.2790 -43.3900 205° Southwest 433 498 25,800 960 Climbing FlightAware
06:08AM -6.3440 -43.4200 205° Southwest 443 510 26,400 1,320 Climbing FlightAware
06:09AM -6.4120 -43.4520 205° Southwest 442 509 27,400 1,200 Climbing FlightAware
06:10AM -6.4730 -43.4810 205° Southwest 452 520 27,800 840 Climbing FlightAware
06:10AM -6.5400 -43.5120 205° Southwest 457 526 28,400 780 Climbing FlightAware
06:11AM -6.5870 -43.5340 205° Southwest 465 535 28,600 540 Climbing FlightAware
06:11AM -6.6870 -43.5810 205° Southwest 479 551 29,100 480 Climbing FlightAware
06:12AM -6.7610 -43.6150 205° Southwest 492 566 29,300 240 Climbing FlightAware
06:13AM -6.8280 -43.6470 205° Southwest 501 577 29,400 600 Climbing FlightAware
06:13AM -6.9050 -43.6830 205° Southwest 502 578 30,000 660 Climbing FlightAware
06:14AM -6.9650 -43.7110 205° Southwest 500 575 30,200 120 Climbing FlightAware
06:14AM -7.0290 -43.7420 206° Southwest 500 575 30,200  Level FlightAware
06:15AM -7.0930 -43.7720 205° Southwest 500 575 30,200  Level FlightAware
06:15AM -7.1580 -43.8020 205° Southwest 500 575 30,200  Level FlightAware
06:16AM -7.2220 -43.8320 205° Southwest 500 575 30,200  Level FlightAware
06:17AM -7.2860 -43.8620 205° Southwest 500 575 30,200  Level FlightAware
06:17AM -7.3500 -43.8920 205° Southwest 500 575 30,200  Level FlightAware
06:18AM -7.4140 -43.9220 205° Southwest 500 575 30,200  Level FlightAware
06:19AM -7.4800 -43.9530 205° Southwest 500 575 30,200  Level FlightAware
06:19AM -7.5440 -43.9840 206° Southwest 500 575 30,200  Level FlightAware
06:20AM -7.6080 -44.0140 205° Southwest 500 575 30,200  Level FlightAware
06:20AM -7.6730 -44.0440 205° Southwest 500 575 30,200  Level FlightAware
06:21AM -7.7370 -44.0740 205° Southwest 500 575 30,200  Level FlightAware
06:22AM -7.8010 -44.1040 205° Southwest 500 575 30,200  Level FlightAware
06:22AM -7.8650 -44.1350 206° Southwest 500 575 30,200  Level FlightAware
06:23AM -7.9290 -44.1650 205° Southwest 500 575 30,200 -120 Level FlightAware
06:25AM -8.0928 -44.2402 204° Southwest  Level Estimated
06:26AM -8.1839 -44.2821 204° Southwest  Level Estimated
06:27AM -8.2749 -44.3239 204° Southwest  Level Estimated
06:28AM -8.3659 -44.3657 204° Southwest  Level Estimated
06:29AM -8.4569 -44.4076 204° Southwest  Level Estimated
06:30AM -8.5479 -44.4495 204° Southwest  Level Estimated
06:31AM -8.6389 -44.4915 204° Southwest  Level Estimated
06:32AM -8.7299 -44.5334 204° Southwest  Level Estimated
06:33AM -8.8208 -44.5754 204° Southwest  Level Estimated
06:34AM -8.9118 -44.6173 205° Southwest  Level Estimated
06:35AM -9.0028 -44.6593 205° Southwest  Level Estimated
06:36AM -9.0938 -44.7014 205° Southwest  Level Estimated
06:37AM -9.1847 -44.7434 205° Southwest  Level Estimated
06:38AM -9.2757 -44.7855 205° Southwest  Level Estimated
06:39AM -9.3666 -44.8275 205° Southwest  Level Estimated
06:40AM -9.4576 -44.8697 205° Southwest  Level Estimated
06:41AM -9.5485 -44.9118 205° Southwest  Level Estimated
06:42AM -9.6395 -44.9539 205° Southwest  Level Estimated
06:43AM -9.7304 -44.9961 205° Southwest  Level Estimated
06:44AM -9.8214 -45.0383 205° Southwest  Level Estimated
06:45AM -9.9123 -45.0805 205° Southwest  Level Estimated
06:46AM -10.0032 -45.1228 205° Southwest  Level Estimated
06:47AM -10.0941 -45.1651 205° Southwest  Level Estimated
06:48AM -10.1850 -45.2074 205° Southwest  Level Estimated
06:49AM -10.2759 -45.2497 205° Southwest  Level Estimated
06:50AM -10.3668 -45.2920 205° Southwest  Level Estimated
06:51AM -10.4577 -45.3344 205° Southwest  Level Estimated
06:52AM -10.5486 -45.3768 205° Southwest  Level Estimated
06:53AM -10.6395 -45.4192 205° Southwest  Level Estimated
06:54AM -10.7304 -45.4616 205° Southwest  Level Estimated
06:55AM -10.8212 -45.5041 205° Southwest  Level Estimated
06:56AM -10.9121 -45.5466 205° Southwest  Level Estimated
06:57AM -11.0029 -45.5891 205° Southwest  Level Estimated
06:58AM -11.0938 -45.6317 205° Southwest  Level Estimated
06:59AM -11.1847 -45.6742 205° Southwest  Level Estimated
07:00AM -11.2755 -45.7168 205° Southwest  Level Estimated
07:01AM -11.3663 -45.7595 205° Southwest  Level Estimated
07:02AM -11.4572 -45.8021 205° Southwest  Level Estimated
07:03AM -11.5480 -45.8448 205° Southwest  Level Estimated
07:04AM -11.6388 -45.8875 205° Southwest  Level Estimated
07:05AM -11.7296 -45.9302 205° Southwest  Level Estimated
07:06AM -11.8204 -45.9730 205° Southwest  Level Estimated
07:07AM -11.9112 -46.0158 205° Southwest  Level Estimated
07:08AM -12.0020 -46.0586 205° Southwest  Level Estimated
07:09AM -12.0928 -46.1015 205° Southwest  Level Estimated
07:10AM -12.1835 -46.1443 205° Southwest  Level Estimated
07:11AM -12.2743 -46.1872 205° Southwest  Level Estimated
07:12AM -12.3651 -46.2302 205° Southwest  Level Estimated
07:13AM -12.4558 -46.2732 205° Southwest  Level Estimated
07:14AM -12.5466 -46.3162 205° Southwest  Level Estimated
07:15AM -12.6373 -46.3592 205° Southwest  Level Estimated
07:16AM -12.7281 -46.4022 205° Southwest  Level Estimated
07:17AM -12.8188 -46.4453 205° Southwest  Level Estimated
07:18AM -12.9095 -46.4885 205° Southwest  Level Estimated
07:19AM -13.0002 -46.5316 205° Southwest  Level Estimated
07:20AM -13.0910 -46.5748 205° Southwest  Level Estimated
07:21AM -13.1817 -46.6180 205° Southwest  Level Estimated
07:22AM -13.2723 -46.6613 205° Southwest  Level Estimated
07:23AM -13.3630 -46.7045 205° Southwest  Level Estimated
07:24AM -13.4537 -46.7478 205° Southwest  Level Estimated
07:25AM -13.5444 -46.7912 205° Southwest  Level Estimated
07:26AM -13.6350 -46.8346 205° Southwest  Level Estimated
07:26AM -15.2650 -47.3220 205° Southwest 461 531 26,000  Level FlightAware
07:26AM -15.2890 -47.3370 211° Southwest 462 532 25,300 -3,540 Descending FlightAware
07:26AM -15.3290 -47.3740 222° Southwest 471 542 23,900 -3,240 Descending FlightAware
07:27AM -15.3710 -47.4270 231° Southwest 471 542 22,400 -3,120 Descending FlightAware
07:27AM -15.4220 -47.4910 230° Southwest 461 531 20,400 -3,180 Descending FlightAware
07:28AM -15.4720 -47.5520 230° Southwest 448 516 18,500 -3,120 Descending FlightAware
07:28AM -15.5120 -47.6030 231° Southwest 437 503 16,900 -3,000 Descending FlightAware
07:29AM -15.5590 -47.6620 230° Southwest 425 489 15,100 -2,940 Descending FlightAware
07:30AM -15.6030 -47.7170 230° Southwest 417 480 13,400 -2,580 Descending FlightAware
07:30AM -15.6430 -47.7670 230° Southwest 403 464 12,200 -1,260 Descending FlightAware
07:31AM -15.6790 -47.8180 234° Southwest 360 414 12,000 -180 Descending FlightAware
07:31AM -15.6930 -47.8760 256° West 315 362 12,000  Level FlightAware
07:32AM -15.7060 -47.9240 254° West 279 321 12,000 -300 Level FlightAware
07:33AM -15.7160 -47.9630 255° West 260 299 11,700 -660 Descending FlightAware
07:33AM -15.7270 -48.0060 255° West 244 281 11,300 -960 Descending FlightAware
07:34AM -15.7370 -48.0430 254° West 242 278 10,600 -1,200 Descending FlightAware
07:34AM -15.7480 -48.0860 255° West 239 275 9,900 -1,140 Descending FlightAware
07:35AM -15.7530 -48.1080 257° West 238 274 9,500 -1,500 Descending FlightAware
07:35AM -15.7590 -48.1260 251° West 237 273 9,000 -1,800 Descending FlightAware
07:35AM -15.7610 -48.1290 235° Southwest 239 275 8,900 -1,500 Descending FlightAware
07:35AM -15.7680 -48.1360 224° Southwest 239 275 8,700 -1,740 Descending FlightAware
07:35AM -15.7730 -48.1400 218° Southwest 239 275 8,500 -1,920 Descending FlightAware
07:35AM -15.7830 -48.1440 201° Southwest 239 275 8,200 -2,040 Descending FlightAware
07:36AM -15.8040 -48.1520 200° South 241 277 7,500 -2,040 Descending FlightAware
07:36AM -15.8250 -48.1600 200° South 247 284 6,800 -1,740 Descending FlightAware
07:36AM -15.8490 -48.1680 198° South 238 274 6,300 -1,080 Descending FlightAware
07:37AM -15.8700 -48.1600 160° South 222 255 6,000 -600 Descending FlightAware
07:37AM -15.8750 -48.1530 127° Southeast 218 251 6,000  Level FlightAware
07:37AM -15.8810 -48.1430 122° Southeast 213 245 6,000  Level FlightAware
07:37AM -15.8880 -48.1300 119° Southeast 208 239 6,000  Level FlightAware
07:38AM -15.8910 -48.1170 103° East 207 238 6,000  Level FlightAware
07:38AM -15.8910 -48.0960 90° East 189 217 6,000 -480 Level FlightAware
07:38AM -15.8890 -48.0780 83° East 176 203 5,700 -900 Descending FlightAware
07:39AM -15.8890 -48.0620 90° East 170 196 5,400 -840 Descending FlightAware
07:39AM -15.8880 -48.0500 85° East 159 183 5,200 -780 Descending FlightAware
07:39AM -15.8870 -48.0370 85° East 146 168 5,000 -780 Descending FlightAware
07:40AM -15.8860 -48.0210 86° East 141 162 4,700 -480 Descending FlightAware
07:40AM -15.8840 -48.0030 83° East 140 161 4,600 -780 Descending FlightAware
07:41AM -15.8830 -47.9740 88° East 139 160 3,800 -1,020 Descending FlightAware
07:41AM -15.8820 -47.9590 86° East 141 162 3,600 -660 Descending FlightAware
07:42AM -15.8810 -47.9430 86° East 138 159 3,300 -480 Descending FlightAware
07:42AM -15.8790 -47.9260 83° East 139 160 3,200 -240 Descending FlightAware
07:45AM -15.8626 -47.9127 38° Northeast  Level Estimated